Time;durP1;ratioP1;P1;durP2;ratioP2;P2;SDS_P1;SDS_P2;PMS_P1;PMS_P2;Temp;Humidity;BMP_temperature;BMP_pressure;BME280_temperature;BME280_humidity;BME280_pressure;Samples;Min_cycle;Max_cycle;Signal;HPM_P1;HPM_P2
2023/11/08 00:01:24;;;;;;;19.00;17.87;;;;;;;;;;5113015;28;20965;-76
2023/11/08 00:03:51;;;;;;;19.10;18.00;;;;;;;;;;5112564;28;20486;-77
2023/11/08 00:06:18;;;;;;;20.10;18.67;;;;;;;;;;5112646;28;20866;-77
2023/11/08 00:08:48;;;;;;;19.67;18.23;;;;;;;;;;5112596;28;20607;-75
2023/11/08 00:11:17;;;;;;;19.50;18.10;;;;;;;;;;5113024;28;21080;-76
2023/11/08 00:13:44;;;;;;;19.83;18.50;;;;;;;;;;5112412;28;20491;-75
2023/11/08 00:16:11;;;;;;;19.23;17.97;;;;;;;;;;5125983;27;20570;-75
2023/11/08 00:18:38;;;;;;;19.43;18.30;;;;;;;;;;5132925;27;20554;-76
2023/11/08 00:21:06;;;;;;;18.60;17.57;;;;;;;;;;5132881;27;20837;-75
2023/11/08 00:23:33;;;;;;;19.97;18.53;;;;;;;;;;5133083;27;20526;-77
2023/11/08 00:26:00;;;;;;;20.13;18.37;;;;;;;;;;5132644;27;20528;-77
2023/11/08 00:28:28;;;;;;;19.17;18.10;;;;;;;;;;5132872;27;20463;-75
2023/11/08 00:30:55;;;;;;;20.23;18.83;;;;;;;;;;5133086;27;20454;-76
2023/11/08 00:33:24;;;;;;;19.47;18.37;;;;;;;;;;5133069;27;20418;-77
2023/11/08 00:35:51;;;;;;;19.53;18.00;;;;;;;;;;5132722;27;20458;-75
2023/11/08 00:38:18;;;;;;;20.67;19.13;;;;;;;;;;5132790;27;20826;-74
2023/11/08 00:40:45;;;;;;;18.37;17.37;;;;;;;;;;5132896;27;20478;-76
2023/11/08 00:43:12;;;;;;;19.23;18.23;;;;;;;;;;5132567;27;20808;-76
2023/11/08 00:45:41;;;;;;;19.27;18.20;;;;;;;;;;5127280;27;20491;-77
2023/11/08 00:48:08;;;;;;;18.93;17.93;;;;;;;;;;5112083;28;20467;-77
2023/11/08 00:50:35;;;;;;;19.77;18.43;;;;;;;;;;5112146;28;20448;-77
2023/11/08 00:53:03;;;;;;;19.70;18.53;;;;;;;;;;5111973;28;20454;-76
2023/11/08 00:55:32;;;;;;;19.43;18.13;;;;;;;;;;5110529;27;20869;-75
2023/11/08 00:58:00;;;;;;;18.80;17.70;;;;;;;;;;5111932;28;20558;-75
2023/11/08 01:00:27;;;;;;;19.50;18.17;;;;;;;;;;5112089;28;20432;-75
2023/11/08 01:02:56;;;;;;;20.60;19.20;;;;;;;;;;5111703;28;20467;-76
2023/11/08 01:05:23;;;;;;;20.43;18.77;;;;;;;;;;5111139;28;20483;-75
2023/11/08 01:07:50;;;;;;;22.27;19.87;;;;;;;;;;5112236;28;20541;-76
2023/11/08 01:10:21;;;;;;;20.43;19.10;;;;;;;;;;5111824;28;20448;-76
2023/11/08 01:12:50;;;;;;;21.87;20.13;;;;;;;;;;5111728;28;20505;-76
2023/11/08 01:15:17;;;;;;;19.60;18.50;;;;;;;;;;5111017;28;20476;-75
2023/11/08 01:17:44;;;;;;;20.67;19.33;;;;;;;;;;5111544;28;20464;-75
2023/11/08 01:20:13;;;;;;;20.90;19.50;;;;;;;;;;5111488;28;21112;-75
2023/11/08 01:22:41;;;;;;;19.90;18.60;;;;;;;;;;5111511;28;20814;-76
2023/11/08 01:25:12;;;;;;;20.50;19.30;;;;;;;;;;5111013;28;20444;-77
2023/11/08 01:27:39;;;;;;;20.77;19.27;;;;;;;;;;5111522;28;21267;-76
2023/11/08 01:30:07;;;;;;;20.30;19.13;;;;;;;;;;5110836;28;20562;-76
2023/11/08 01:32:34;;;;;;;20.43;19.13;;;;;;;;;;5111528;28;20522;-77
2023/11/08 01:35:02;;;;;;;21.10;19.80;;;;;;;;;;5126681;27;20458;-77
2023/11/08 01:37:31;;;;;;;20.87;19.43;;;;;;;;;;5131694;27;20999;-77
2023/11/08 01:39:59;;;;;;;20.50;19.40;;;;;;;;;;5131812;27;20845;-76
2023/11/08 01:42:26;;;;;;;20.63;19.30;;;;;;;;;;5131733;27;20459;-75
2023/11/08 01:44:53;;;;;;;19.27;18.17;;;;;;;;;;5131390;27;20447;-75
2023/11/08 01:47:20;;;;;;;21.47;19.93;;;;;;;;;;5131872;27;20483;-77
2023/11/08 01:49:47;;;;;;;21.30;19.60;;;;;;;;;;5131727;27;20417;-76
2023/11/08 01:52:14;;;;;;;21.67;20.17;;;;;;;;;;5131376;27;20418;-77
2023/11/08 01:54:45;;;;;;;20.07;18.67;;;;;;;;;;5130434;27;20442;-75
2023/11/08 01:57:13;;;;;;;21.17;19.97;;;;;;;;;;5131469;27;20455;-76
2023/11/08 01:59:40;;;;;;;20.93;19.63;;;;;;;;;;5131154;27;20439;-77
2023/11/08 02:02:07;;;;;;;20.10;19.07;;;;;;;;;;5131257;27;20800;-75
2023/11/08 02:04:35;;;;;;;20.20;19.10;;;;;;;;;;5129305;27;20435;-74
2023/11/08 02:07:02;;;;;;;22.20;20.57;;;;;;;;;;5110310;28;20492;-77
2023/11/08 02:09:29;;;;;;;21.13;19.73;;;;;;;;;;5114153;28;20446;-76
2023/11/08 02:12:00;;;;;;;21.90;19.90;;;;;;;;;;5131030;28;20444;-75
2023/11/08 02:14:28;;;;;;;20.70;19.50;;;;;;;;;;5130727;28;20778;-76
2023/11/08 02:16:55;;;;;;;21.37;20.17;;;;;;;;;;5131363;28;20556;-75
2023/11/08 02:19:23;;;;;;;21.30;19.70;;;;;;;;;;5130724;27;20485;-77
2023/11/08 02:21:51;;;;;;;22.50;20.63;;;;;;;;;;5113772;28;20448;-76
2023/11/08 02:24:20;;;;;;;21.87;20.10;;;;;;;;;;5128222;28;20455;-76
2023/11/08 02:26:48;;;;;;;20.97;19.77;;;;;;;;;;5131195;28;20486;-76
2023/11/08 02:29:15;;;;;;;22.77;21.17;;;;;;;;;;5131515;28;20490;-77
2023/11/08 02:31:42;;;;;;;20.27;18.97;;;;;;;;;;5130896;28;20523;-76
2023/11/08 02:34:10;;;;;;;20.90;19.57;;;;;;;;;;5130222;28;20837;-77
2023/11/08 02:36:37;;;;;;;21.63;20.30;;;;;;;;;;5130993;28;20488;-76
2023/11/08 02:39:04;;;;;;;22.20;20.80;;;;;;;;;;5130961;28;20832;-77
2023/11/08 02:41:34;;;;;;;20.33;19.17;;;;;;;;;;5130710;27;20486;-76
2023/11/08 02:44:01;;;;;;;21.63;19.77;;;;;;;;;;5130466;28;20843;-76
2023/11/08 02:46:30;;;;;;;19.47;18.47;;;;;;;;;;5130711;28;20955;-75
2023/11/08 02:48:58;;;;;;;20.47;19.27;;;;;;;;;;5130795;28;20523;-75
2023/11/08 02:51:25;;;;;;;21.90;20.40;;;;;;;;;;5131112;28;20482;-75
2023/11/08 02:53:52;;;;;;;21.27;19.97;;;;;;;;;;5130101;28;20451;-76
2023/11/08 02:56:19;;;;;;;19.87;18.37;;;;;;;;;;5130999;28;20445;-76
2023/11/08 02:58:48;;;;;;;22.63;20.43;;;;;;;;;;5116150;28;20529;-77
2023/11/08 03:01:15;;;;;;;23.20;21.70;;;;;;;;;;5110040;28;20436;-76
2023/11/08 03:03:42;;;;;;;22.03;20.63;;;;;;;;;;5110175;28;20444;-76
2023/11/08 03:06:10;;;;;;;21.73;20.33;;;;;;;;;;5113253;28;20486;-76
2023/11/08 03:08:37;;;;;;;20.93;19.73;;;;;;;;;;5114203;28;20503;-76
2023/11/08 03:11:05;;;;;;;21.37;20.17;;;;;;;;;;5114185;28;20595;-77
2023/11/08 03:13:32;;;;;;;22.73;21.20;;;;;;;;;;5114265;28;20456;-77
2023/11/08 03:16:01;;;;;;;23.27;21.60;;;;;;;;;;5113370;28;20453;-75
2023/11/08 03:18:28;;;;;;;23.13;21.43;;;;;;;;;;5114012;28;20490;-78
2023/11/08 03:20:55;;;;;;;22.23;20.93;;;;;;;;;;5113691;28;20447;-76
2023/11/08 03:23:22;;;;;;;23.50;21.80;;;;;;;;;;5113739;28;20421;-76
2023/11/08 03:25:49;;;;;;;22.67;20.90;;;;;;;;;;5113403;28;20451;-77
2023/11/08 03:28:16;;;;;;;22.03;20.37;;;;;;;;;;5113701;28;20438;-75
2023/11/08 03:30:44;;;;;;;20.40;19.20;;;;;;;;;;5113560;28;20444;-75
2023/11/08 03:33:12;;;;;;;20.17;19.03;;;;;;;;;;5113575;28;20447;-76
2023/11/08 03:35:39;;;;;;;21.77;20.30;;;;;;;;;;5112437;28;20447;-76
2023/11/08 03:38:07;;;;;;;22.40;20.80;;;;;;;;;;5112831;28;20968;-76
2023/11/08 03:40:34;;;;;;;22.13;20.53;;;;;;;;;;5119529;27;20471;-78
2023/11/08 03:43:02;;;;;;;22.70;20.90;;;;;;;;;;5133928;27;20434;-75
2023/11/08 03:45:29;;;;;;;22.00;20.60;;;;;;;;;;5133481;27;20451;-77
2023/11/08 03:47:56;;;;;;;24.10;22.40;;;;;;;;;;5133809;27;20490;-76
2023/11/08 03:50:25;;;;;;;23.13;21.53;;;;;;;;;;5123387;27;20471;-76
2023/11/08 03:52:52;;;;;;;21.27;20.07;;;;;;;;;;5112965;28;20456;-76
2023/11/08 03:55:19;;;;;;;19.93;18.80;;;;;;;;;;5112519;28;20479;-76
2023/11/08 03:57:46;;;;;;;23.37;21.57;;;;;;;;;;5113113;28;20550;-75
2023/11/08 04:00:14;;;;;;;21.17;19.97;;;;;;;;;;5120770;27;20427;-76
2023/11/08 04:02:41;;;;;;;22.97;21.60;;;;;;;;;;5129909;27;20498;-75
2023/11/08 04:05:08;;;;;;;21.63;20.23;;;;;;;;;;5122958;27;20444;-76
2023/11/08 04:07:36;;;;;;;21.70;20.30;;;;;;;;;;5112998;28;20578;-76
2023/11/08 04:10:04;;;;;;;22.07;20.37;;;;;;;;;;5116329;27;20451;-75
2023/11/08 04:12:31;;;;;;;19.73;18.50;;;;;;;;;;5113671;27;20486;-75
2023/11/08 04:14:58;;;;;;;22.40;21.10;;;;;;;;;;5112161;28;20440;-76
2023/11/08 04:17:25;;;;;;;22.27;20.87;;;;;;;;;;5111785;28;20467;-76
2023/11/08 04:19:54;;;;;;;23.50;21.97;;;;;;;;;;5112557;28;20432;-76
2023/11/08 04:22:21;;;;;;;22.50;20.90;;;;;;;;;;5112572;28;20474;-76
2023/11/08 04:24:49;;;;;;;24.40;22.53;;;;;;;;;;5112213;28;20455;-76
2023/11/08 04:27:17;;;;;;;25.30;23.17;;;;;;;;;;5112393;28;20473;-77
2023/11/08 04:29:44;;;;;;;25.13;22.83;;;;;;;;;;5112752;28;20432;-77
2023/11/08 04:32:11;;;;;;;21.43;19.80;;;;;;;;;;5112736;28;20455;-77
2023/11/08 04:34:38;;;;;;;24.67;22.87;;;;;;;;;;5111933;28;20443;-76
2023/11/08 04:37:08;;;;;;;23.63;21.83;;;;;;;;;;5112628;28;21187;-76
2023/11/08 04:39:37;;;;;;;22.93;20.83;;;;;;;;;;5112726;28;20525;-77
2023/11/08 04:42:05;;;;;;;26.40;24.30;;;;;;;;;;5112000;28;20458;-75
2023/11/08 04:44:33;;;;;;;25.37;23.40;;;;;;;;;;5111687;28;20440;-77
2023/11/08 04:47:00;;;;;;;24.00;22.33;;;;;;;;;;5112157;28;20462;-75
2023/11/08 04:49:27;;;;;;;25.60;23.67;;;;;;;;;;5111948;28;20525;-77
2023/11/08 04:51:54;;;;;;;26.80;24.83;;;;;;;;;;5112504;28;20445;-76
2023/11/08 04:54:22;;;;;;;26.33;24.03;;;;;;;;;;5111228;28;20459;-76
2023/11/08 04:56:49;;;;;;;23.10;21.37;;;;;;;;;;5111732;28;20493;-77
2023/11/08 04:59:17;;;;;;;25.30;23.43;;;;;;;;;;5112148;28;20451;-76
2023/11/08 05:01:44;;;;;;;26.47;24.40;;;;;;;;;;5111828;28;20802;-75
2023/11/08 05:04:11;;;;;;;27.97;25.73;;;;;;;;;;5111128;28;20458;-75
2023/11/08 05:06:38;;;;;;;30.03;27.47;;;;;;;;;;5117208;27;20535;-77
2023/11/08 05:09:06;;;;;;;27.53;25.07;;;;;;;;;;5132477;27;20418;-76
2023/11/08 05:11:33;;;;;;;29.27;26.80;;;;;;;;;;5132302;27;20790;-76
2023/11/08 05:14:01;;;;;;;27.93;25.53;;;;;;;;;;5131395;27;20931;-76
2023/11/08 05:16:30;;;;;;;28.93;26.60;;;;;;;;;;5132052;27;20537;-75
2023/11/08 05:18:58;;;;;;;28.10;25.87;;;;;;;;;;5132279;27;21216;-76
2023/11/08 05:21:26;;;;;;;23.50;21.77;;;;;;;;;;5132655;27;20775;-76
2023/11/08 05:23:55;;;;;;;26.90;24.77;;;;;;;;;;5131386;27;20534;-75
2023/11/08 05:26:23;;;;;;;27.27;25.10;;;;;;;;;;5131826;27;21129;-75
2023/11/08 05:28:50;;;;;;;28.70;26.00;;;;;;;;;;5131732;27;20813;-76
2023/11/08 05:31:17;;;;;;;22.70;21.10;;;;;;;;;;5131793;27;20820;-76
2023/11/08 05:33:45;;;;;;;25.77;23.93;;;;;;;;;;5131947;27;20546;-76
2023/11/08 05:36:12;;;;;;;25.10;23.30;;;;;;;;;;5131471;27;20454;-76
2023/11/08 05:38:39;;;;;;;23.83;22.17;;;;;;;;;;5127536;27;20984;-77
2023/11/08 05:41:06;;;;;;;24.30;22.50;;;;;;;;;;5110832;28;20456;-76
2023/11/08 05:43:34;;;;;;;23.53;22.07;;;;;;;;;;5110632;28;20815;-76
2023/11/08 05:46:01;;;;;;;23.67;21.97;;;;;;;;;;5121611;27;20450;-75
2023/11/08 05:48:29;;;;;;;22.43;21.03;;;;;;;;;;5121960;27;20487;-79
2023/11/08 05:50:57;;;;;;;24.67;22.87;;;;;;;;;;5114311;28;20439;-77
2023/11/08 05:53:25;;;;;;;21.23;19.93;;;;;;;;;;5114775;28;20440;-78
2023/11/08 05:55:52;;;;;;;24.80;23.07;;;;;;;;;;5114177;28;20458;-77
2023/11/08 05:58:20;;;;;;;26.17;24.40;;;;;;;;;;5110376;28;20469;-77
2023/11/08 06:00:47;;;;;;;26.10;24.20;;;;;;;;;;5110683;28;20451;-76
2023/11/08 06:03:14;;;;;;;27.77;25.70;;;;;;;;;;5109800;28;20475;-76
2023/11/08 06:05:42;;;;;;;28.07;25.70;;;;;;;;;;5110122;28;20459;-77
2023/11/08 06:08:10;;;;;;;29.97;27.60;;;;;;;;;;5110540;28;20492;-78
2023/11/08 06:10:37;;;;;;;28.40;25.93;;;;;;;;;;5110936;28;20470;-76
2023/11/08 06:13:04;;;;;;;24.50;22.73;;;;;;;;;;5111221;28;20430;-76
2023/11/08 06:15:31;;;;;;;28.87;26.30;;;;;;;;;;5109849;28;20444;-76
2023/11/08 06:21:02;;;;;;;26.97;24.87;;;;;;;;;;5109083;28;20399;-77
2023/11/08 06:23:31;;;;;;;27.27;25.23;;;;;;;;;;5111082;28;20423;-76
2023/11/08 06:25:58;;;;;;;26.70;24.40;;;;;;;;;;5113903;28;20464;-78
2023/11/08 06:28:25;;;;;;;26.20;24.30;;;;;;;;;;5112689;28;20524;-78
2023/11/08 06:33:56;;;;;;;25.97;24.07;;;;;;;;;;5113344;28;20407;-76
2023/11/08 06:36:24;;;;;;;24.37;22.63;;;;;;;;;;5114243;28;20955;-76
2023/11/08 06:38:52;;;;;;;25.53;23.20;;;;;;;;;;5123977;28;21057;-78
2023/11/08 06:41:19;;;;;;;26.43;24.53;;;;;;;;;;5116829;28;20430;-75
2023/11/08 06:43:48;;;;;;;24.57;22.97;;;;;;;;;;5115119;28;20440;-76
2023/11/08 06:49:18;;;;;;;25.00;23.33;;;;;;;;;;5113064;28;20492;-76
2023/11/08 06:51:46;;;;;;;23.90;22.10;;;;;;;;;;5114426;28;20421;-76
2023/11/08 06:54:14;;;;;;;21.93;20.53;;;;;;;;;;5113966;28;20440;-76
2023/11/08 06:56:41;;;;;;;22.93;21.30;;;;;;;;;;5114502;28;20451;-76
2023/11/08 07:02:12;;;;;;;23.23;21.60;;;;;;;;;;5117171;27;20447;-76
2023/11/08 07:04:39;;;;;;;25.97;23.93;;;;;;;;;;5113838;28;20466;-75
2023/11/08 07:07:06;;;;;;;23.20;21.60;;;;;;;;;;5114213;28;20546;-75
2023/11/08 07:09:34;;;;;;;25.23;23.20;;;;;;;;;;5114009;28;20440;-77
2023/11/08 07:12:03;;;;;;;24.23;22.63;;;;;;;;;;5114186;28;21157;-75
2023/11/08 07:14:30;;;;;;;21.10;19.70;;;;;;;;;;5114176;28;20414;-76
2023/11/08 07:16:57;;;;;;;24.73;23.13;;;;;;;;;;5125540;27;20483;-76
2023/11/08 07:19:24;;;;;;;24.40;22.80;;;;;;;;;;5135045;27;20468;-75
2023/11/08 07:21:52;;;;;;;22.30;20.70;;;;;;;;;;5134491;27;20824;-76
2023/11/08 07:24:19;;;;;;;22.83;21.23;;;;;;;;;;5134412;27;20453;-75
2023/11/08 07:26:48;;;;;;;24.07;22.00;;;;;;;;;;5134503;27;20841;-76
2023/11/08 07:29:15;;;;;;;21.60;20.30;;;;;;;;;;5133981;27;20457;-77
2023/11/08 07:31:42;;;;;;;23.77;22.10;;;;;;;;;;5134747;27;20823;-75
2023/11/08 07:34:09;;;;;;;22.67;21.00;;;;;;;;;;5133798;27;20431;-75
2023/11/08 07:36:37;;;;;;;22.60;21.00;;;;;;;;;;5134745;27;20462;-75
2023/11/08 07:39:06;;;;;;;22.23;20.30;;;;;;;;;;5134493;27;20546;-74
2023/11/08 07:41:33;;;;;;;22.83;21.00;;;;;;;;;;5134307;27;20454;-75
2023/11/08 07:44:02;;;;;;;22.73;21.03;;;;;;;;;;5133407;27;21120;-76
2023/11/08 07:46:29;;;;;;;22.07;20.50;;;;;;;;;;5133858;27;20860;-74
2023/11/08 07:48:57;;;;;;;22.43;21.00;;;;;;;;;;5133932;27;20453;-74
2023/11/08 07:51:25;;;;;;;22.67;20.90;;;;;;;;;;5132892;27;20454;-75
2023/11/08 07:53:56;;;;;;;22.03;20.37;;;;;;;;;;5133904;27;20443;-75
2023/11/08 07:56:23;;;;;;;21.93;20.43;;;;;;;;;;5134306;27;20428;-76
2023/11/08 07:58:52;;;;;;;21.80;19.97;;;;;;;;;;5133989;27;20466;-75
2023/11/08 08:01:21;;;;;;;21.57;19.50;;;;;;;;;;5133737;27;21031;-75
2023/11/08 08:03:49;;;;;;;20.97;19.47;;;;;;;;;;5133209;27;20814;-75
2023/11/08 08:06:16;;;;;;;19.40;18.30;;;;;;;;;;5133386;27;21267;-75
2023/11/08 08:08:43;;;;;;;19.80;18.20;;;;;;;;;;5133859;27;20489;-74
2023/11/08 08:11:11;;;;;;;19.30;18.00;;;;;;;;;;5125963;27;20483;-74
2023/11/08 08:13:38;;;;;;;18.50;17.50;;;;;;;;;;5113035;28;20536;-75
2023/11/08 08:16:05;;;;;;;19.90;18.70;;;;;;;;;;5131403;27;20455;-74
2023/11/08 08:18:35;;;;;;;20.30;19.10;;;;;;;;;;5133714;27;20549;-75
2023/11/08 08:21:02;;;;;;;19.77;18.57;;;;;;;;;;5133485;27;20930;-75
2023/11/08 08:23:29;;;;;;;20.17;18.70;;;;;;;;;;5133516;27;20848;-76
2023/11/08 08:25:57;;;;;;;19.80;18.70;;;;;;;;;;5133206;27;20454;-74
2023/11/08 08:28:24;;;;;;;20.30;19.00;;;;;;;;;;5133335;27;20842;-74
2023/11/08 08:30:51;;;;;;;20.53;18.40;;;;;;;;;;5133447;27;20455;-76
2023/11/08 08:33:19;;;;;;;19.80;18.30;;;;;;;;;;5133409;27;20450;-75
2023/11/08 08:35:47;;;;;;;20.77;19.23;;;;;;;;;;5132549;27;20451;-76
2023/11/08 08:38:14;;;;;;;20.07;18.77;;;;;;;;;;5132733;27;20438;-77
2023/11/08 08:40:41;;;;;;;18.30;17.30;;;;;;;;;;5133125;27;20462;-78
2023/11/08 08:43:09;;;;;;;19.90;18.70;;;;;;;;;;5133520;27;20865;-78
2023/11/08 08:45:36;;;;;;;19.63;18.57;;;;;;;;;;5132083;27;20447;-76
2023/11/08 08:48:03;;;;;;;19.73;18.53;;;;;;;;;;5132996;27;20482;-78
2023/11/08 08:50:30;;;;;;;20.90;19.13;;;;;;;;;;5132513;27;20478;-77
2023/11/08 08:52:59;;;;;;;20.03;18.57;;;;;;;;;;5132786;27;20422;-76
2023/11/08 08:55:26;;;;;;;20.73;19.07;;;;;;;;;;5132098;27;20447;-77
2023/11/08 08:57:53;;;;;;;18.87;17.87;;;;;;;;;;5132113;27;20459;-77
2023/11/08 09:00:22;;;;;;;19.87;18.60;;;;;;;;;;5132528;27;20444;-76
2023/11/08 09:02:49;;;;;;;21.43;19.40;;;;;;;;;;5132455;27;20482;-75
2023/11/08 09:05:18;;;;;;;20.13;18.83;;;;;;;;;;5132067;27;20451;-75
2023/11/08 09:07:45;;;;;;;19.20;18.10;;;;;;;;;;5111545;28;20964;-75
2023/11/08 09:10:15;;;;;;;19.27;17.77;;;;;;;;;;5111447;28;20902;-74
2023/11/08 09:12:42;;;;;;;19.33;17.93;;;;;;;;;;5115036;27;20471;-75
2023/11/08 09:15:10;;;;;;;19.53;18.30;;;;;;;;;;5116437;27;20455;-76
2023/11/08 09:17:38;;;;;;;19.60;18.37;;;;;;;;;;5122467;27;20472;-75
2023/11/08 09:20:07;;;;;;;19.77;18.57;;;;;;;;;;5111975;28;20802;-74
2023/11/08 09:22:34;;;;;;;19.47;18.17;;;;;;;;;;5111766;28;20823;-76
2023/11/08 09:25:03;;;;;;;19.17;17.63;;;;;;;;;;5110838;28;20853;-76
2023/11/08 09:27:32;;;;;;;19.00;17.77;;;;;;;;;;5122094;27;20478;-75
2023/11/08 09:29:59;;;;;;;20.50;18.93;;;;;;;;;;5130231;27;20504;-78
2023/11/08 09:32:27;;;;;;;19.30;18.17;;;;;;;;;;5112561;28;20455;-79
2023/11/08 09:34:54;;;;;;;19.57;18.23;;;;;;;;;;5115127;28;20451;-80
2023/11/08 09:37:22;;;;;;;19.77;18.57;;;;;;;;;;5112682;28;20462;-76
2023/11/08 09:39:50;;;;;;;18.60;17.70;;;;;;;;;;5112411;27;20943;-77
2023/11/08 09:42:18;;;;;;;18.73;17.73;;;;;;;;;;5111169;28;20940;-76
2023/11/08 09:44:47;;;;;;;19.63;18.37;;;;;;;;;;5110400;28;20448;-75
2023/11/08 09:47:14;;;;;;;20.60;18.90;;;;;;;;;;5110693;28;20564;-75
2023/11/08 09:49:42;;;;;;;19.20;18.20;;;;;;;;;;5111296;28;20551;-75
2023/11/08 09:52:11;;;;;;;18.77;17.77;;;;;;;;;;5111463;28;20450;-75
2023/11/08 09:54:41;;;;;;;19.93;18.53;;;;;;;;;;5110948;28;20421;-75
2023/11/08 09:57:08;;;;;;;19.87;18.63;;;;;;;;;;5110768;28;21196;-77
2023/11/08 09:59:36;;;;;;;20.63;19.10;;;;;;;;;;5110880;28;20466;-75
2023/11/08 10:02:06;;;;;;;20.27;19.07;;;;;;;;;;5111065;28;20841;-76
2023/11/08 10:04:33;;;;;;;21.67;19.73;;;;;;;;;;5110154;28;20527;-75
2023/11/08 10:07:00;;;;;;;19.60;18.13;;;;;;;;;;5110503;28;20467;-75
2023/11/08 10:09:31;;;;;;;20.03;18.73;;;;;;;;;;5110492;28;20458;-77
2023/11/08 10:11:58;;;;;;;19.63;18.33;;;;;;;;;;5110068;28;20467;-76
2023/11/08 10:14:32;;;;;;;19.80;18.60;;;;;;;;;;5109191;28;20443;-76
2023/11/08 10:16:59;;;;;;;19.70;18.50;;;;;;;;;;5110528;28;20442;-75
2023/11/08 10:19:39;;;;;;;21.83;20.40;;;;;;;;;;5110452;28;20446;-75
2023/11/08 10:22:06;;;;;;;20.57;18.90;;;;;;;;;;5110553;28;20502;-75
2023/11/08 10:24:33;;;;;;;20.67;19.10;;;;;;;;;;5109988;28;20448;-75
2023/11/08 10:27:11;;;;;;;18.43;17.40;;;;;;;;;;5110222;28;20455;-75
2023/11/08 10:29:39;;;;;;;20.37;18.30;;;;;;;;;;5110271;28;20519;-75
2023/11/08 10:32:19;;;;;;;20.60;19.30;;;;;;;;;;5110289;28;20960;-76
2023/11/08 10:34:47;;;;;;;20.40;19.10;;;;;;;;;;5109975;28;20406;-74
2023/11/08 10:37:24;;;;;;;20.47;19.37;;;;;;;;;;5110515;28;20471;-75
2023/11/08 10:39:52;;;;;;;21.43;19.93;;;;;;;;;;5112927;28;20446;-81
2023/11/08 10:42:20;;;;;;;19.80;18.60;;;;;;;;;;5113780;28;20479;-80
2023/11/08 10:44:47;;;;;;;20.93;19.73;;;;;;;;;;5113213;28;20454;-80
2023/11/08 10:47:15;;;;;;;20.20;19.00;;;;;;;;;;5113198;28;20488;-79
2023/11/08 10:49:46;;;;;;;19.83;18.67;;;;;;;;;;5113214;28;20561;-79
2023/11/08 10:52:14;;;;;;;20.30;19.10;;;;;;;;;;5114023;28;20444;-79
2023/11/08 10:54:42;;;;;;;19.83;18.43;;;;;;;;;;5113403;28;20559;-78
2023/11/08 10:57:12;;;;;;;21.07;19.30;;;;;;;;;;5113772;28;20460;-80
2023/11/08 10:59:42;;;;;;;19.73;18.63;;;;;;;;;;5113678;28;20922;-79
2023/11/08 11:02:16;;;;;;;19.73;18.53;;;;;;;;;;5113313;28;20447;-80
2023/11/08 11:04:43;;;;;;;19.70;18.50;;;;;;;;;;5112692;28;20451;-80
2023/11/08 11:07:12;;;;;;;20.50;19.10;;;;;;;;;;5112945;28;20472;-79
2023/11/08 11:09:41;;;;;;;22.43;18.83;;;;;;;;;;5112280;28;20981;-80
2023/11/08 11:12:11;;;;;;;20.20;19.00;;;;;;;;;;5112629;28;20451;-79
2023/11/08 11:14:44;;;;;;;20.57;19.37;;;;;;;;;;5111715;28;20909;-79
2023/11/08 11:17:16;;;;;;;20.43;19.23;;;;;;;;;;5112462;28;20469;-79
2023/11/08 11:19:44;;;;;;;19.40;18.00;;;;;;;;;;5113063;28;20424;-79
2023/11/08 11:22:14;;;;;;;20.10;18.67;;;;;;;;;;5112685;28;20530;-79
2023/11/08 11:24:45;;;;;;;20.50;19.10;;;;;;;;;;5112785;28;20484;-78
2023/11/08 11:27:32;;;;;;;20.43;19.03;;;;;;;;;;5115705;28;20559;-80
2023/11/08 11:30:18;;;;;;;21.27;19.80;;;;;;;;;;5115829;28;20540;-80
2023/11/08 11:32:46;;;;;;;19.97;18.70;;;;;;;;;;5116722;28;20443;-80
2023/11/08 11:35:15;;;;;;;20.23;19.00;;;;;;;;;;5117190;28;20459;-80
2023/11/08 11:37:42;;;;;;;20.53;19.13;;;;;;;;;;5118845;28;20483;-80
2023/11/08 11:40:15;;;;;;;20.20;19.00;;;;;;;;;;5116498;27;20947;-79
2023/11/08 11:42:45;;;;;;;20.73;19.60;;;;;;;;;;5115966;28;20853;-80
2023/11/08 11:45:12;;;;;;;20.10;18.90;;;;;;;;;;5115557;28;20485;-79
2023/11/08 11:47:41;;;;;;;19.63;18.30;;;;;;;;;;5115395;28;20456;-79
2023/11/08 11:50:09;;;;;;;20.80;19.23;;;;;;;;;;5115343;28;21018;-79
2023/11/08 11:52:37;;;;;;;21.40;20.20;;;;;;;;;;5115069;28;20436;-80
2023/11/08 11:55:06;;;;;;;19.93;18.83;;;;;;;;;;5114471;28;20951;-79
2023/11/08 11:57:35;;;;;;;20.57;19.37;;;;;;;;;;5115363;28;20855;-79
2023/11/08 12:00:04;;;;;;;21.20;19.60;;;;;;;;;;5115482;28;20443;-79
2023/11/08 12:02:31;;;;;;;19.63;18.43;;;;;;;;;;5115235;28;20444;-78
2023/11/08 12:04:58;;;;;;;19.80;18.70;;;;;;;;;;5129287;27;20435;-80
2023/11/08 12:07:26;;;;;;;20.33;19.13;;;;;;;;;;5135642;27;20462;-79
2023/11/08 12:09:55;;;;;;;21.10;19.40;;;;;;;;;;5135945;27;20486;-79
2023/11/08 12:12:28;;;;;;;21.17;19.70;;;;;;;;;;5124325;27;20451;-79
2023/11/08 12:14:58;;;;;;;22.40;20.77;;;;;;;;;;5115817;28;20462;-83
2023/11/08 12:17:25;;;;;;;21.97;20.37;;;;;;;;;;5122249;27;20455;-81
2023/11/08 12:19:52;;;;;;;21.77;20.10;;;;;;;;;;5139351;27;20980;-80
2023/11/08 12:22:21;;;;;;;21.50;20.13;;;;;;;;;;5137757;27;20467;-81
2023/11/08 12:24:48;;;;;;;21.17;19.60;;;;;;;;;;5137545;27;20454;-82
2023/11/08 12:27:16;;;;;;;20.60;19.30;;;;;;;;;;5138302;27;20481;-80
2023/11/08 12:29:44;;;;;;;20.87;19.57;;;;;;;;;;5131331;27;20502;-81
2023/11/08 12:32:13;;;;;;;19.40;18.40;;;;;;;;;;5131050;27;20463;-81
2023/11/08 12:34:41;;;;;;;21.90;20.10;;;;;;;;;;5137914;27;20442;-81
2023/11/08 12:37:10;;;;;;;20.20;19.00;;;;;;;;;;5138507;27;20464;-79
2023/11/08 12:39:37;;;;;;;20.70;19.30;;;;;;;;;;5138069;27;20422;-81
2023/11/08 12:42:15;;;;;;;20.23;19.13;;;;;;;;;;5138469;27;20458;-78
2023/11/08 12:44:47;;;;;;;21.57;20.10;;;;;;;;;;5139926;27;20443;-78
2023/11/08 12:47:15;;;;;;;20.67;19.37;;;;;;;;;;5131162;27;20480;-79
2023/11/08 12:49:43;;;;;;;22.53;21.10;;;;;;;;;;5114839;27;20483;-79
2023/11/08 12:52:10;;;;;;;19.50;18.30;;;;;;;;;;5115028;28;20459;-78
2023/11/08 12:54:37;;;;;;;20.10;18.80;;;;;;;;;;5114339;28;20476;-80
2023/11/08 12:57:06;;;;;;;19.70;18.60;;;;;;;;;;5118593;27;20462;-79
2023/11/08 12:59:35;;;;;;;19.90;18.70;;;;;;;;;;5131595;27;20443;-80
2023/11/08 13:02:13;;;;;;;20.20;18.90;;;;;;;;;;5136327;27;20451;-79
2023/11/08 13:04:42;;;;;;;20.07;18.83;;;;;;;;;;5136589;27;20459;-80
2023/11/08 13:07:09;;;;;;;20.97;19.57;;;;;;;;;;5135382;27;21258;-80
2023/11/08 13:09:36;;;;;;;22.10;20.00;;;;;;;;;;5136783;27;20475;-80
2023/11/08 13:12:03;;;;;;;21.10;19.80;;;;;;;;;;5136274;27;20488;-80
2023/11/08 13:14:30;;;;;;;20.97;19.63;;;;;;;;;;5136269;27;20454;-80
2023/11/08 13:16:57;;;;;;;20.70;19.50;;;;;;;;;;5136828;27;20447;-80
2023/11/08 13:19:24;;;;;;;21.07;19.90;;;;;;;;;;5136304;27;20805;-80
2023/11/08 13:21:53;;;;;;;21.70;20.23;;;;;;;;;;5136491;27;20451;-80
2023/11/08 13:24:20;;;;;;;23.00;21.20;;;;;;;;;;5135425;27;20822;-81
2023/11/08 13:26:47;;;;;;;21.93;20.40;;;;;;;;;;5129955;27;20515;-79
2023/11/08 13:29:14;;;;;;;21.20;19.57;;;;;;;;;;5111647;28;20509;-75
2023/11/08 13:31:41;;;;;;;21.57;20.30;;;;;;;;;;5126957;27;20470;-76
2023/11/08 13:34:08;;;;;;;22.30;20.80;;;;;;;;;;5132177;27;20876;-77
2023/11/08 13:36:36;;;;;;;21.73;20.33;;;;;;;;;;5134941;27;20450;-80
2023/11/08 13:39:07;;;;;;;20.63;19.43;;;;;;;;;;5136985;27;20467;-80
2023/11/08 13:41:34;;;;;;;21.97;20.37;;;;;;;;;;5141267;27;20466;-82
2023/11/08 13:44:02;;;;;;;22.43;20.90;;;;;;;;;;5143001;27;20459;-83
2023/11/08 13:46:29;;;;;;;22.07;20.57;;;;;;;;;;5143483;27;20462;-83
2023/11/08 13:48:56;;;;;;;21.70;20.13;;;;;;;;;;5144166;27;20558;-83
2023/11/08 13:51:24;;;;;;;21.33;20.00;;;;;;;;;;5143611;27;20509;-82
2023/11/08 13:53:51;;;;;;;21.70;20.40;;;;;;;;;;5138269;27;20518;-83
2023/11/08 13:56:19;;;;;;;22.30;20.90;;;;;;;;;;5124504;28;20463;-82
2023/11/08 13:58:49;;;;;;;20.90;19.70;;;;;;;;;;5123434;28;20467;-81
2023/11/08 14:01:16;;;;;;;21.57;20.27;;;;;;;;;;5139834;27;20478;-82
2023/11/08 14:03:44;;;;;;;21.50;20.07;;;;;;;;;;5122950;28;20452;-79
2023/11/08 14:06:12;;;;;;;20.90;19.60;;;;;;;;;;5118849;28;20834;-85
2023/11/08 14:08:40;;;;;;;20.73;19.53;;;;;;;;;;5118194;28;20463;-79
2023/11/08 14:11:07;;;;;;;21.10;19.80;;;;;;;;;;5116847;28;20515;-82
2023/11/08 14:13:36;;;;;;;21.50;20.00;;;;;;;;;;5117340;27;20460;-80
2023/11/08 14:16:04;;;;;;;21.13;19.50;;;;;;;;;;5114100;28;20808;-80
2023/11/08 14:18:31;;;;;;;21.57;20.00;;;;;;;;;;5113175;28;20503;-80
2023/11/08 14:20:58;;;;;;;21.17;19.97;;;;;;;;;;5119974;28;20479;-82
2023/11/08 14:23:25;;;;;;;20.90;19.70;;;;;;;;;;5125198;28;20470;-80
2023/11/08 14:25:53;;;;;;;21.50;20.10;;;;;;;;;;5135693;28;20490;-80
2023/11/08 14:28:21;;;;;;;22.73;20.80;;;;;;;;;;5136712;28;20574;-81
2023/11/08 14:30:50;;;;;;;21.70;20.40;;;;;;;;;;5135129;28;20475;-81
2023/11/08 14:33:17;;;;;;;22.60;20.90;;;;;;;;;;5136114;28;20459;-83